createdAt,value
2023-02-11T09:59:40.306Z,5.34
2023-02-11T10:02:38.088Z,5.38
2023-02-11T10:05:20.058Z,5.44
2023-02-11T10:08:17.218Z,5.42
2023-02-11T10:11:01.537Z,5.41
2023-02-11T10:14:07.731Z,5.44
2023-02-11T10:17:00.701Z,5.52
2023-02-11T10:19:54.945Z,5.51
2023-02-11T10:22:30.336Z,5.50
2023-02-11T10:25:00.751Z,5.56
2023-02-11T10:27:35.887Z,5.53
2023-02-11T10:30:35.008Z,5.54
2023-02-11T10:33:14.065Z,5.49
2023-02-11T10:35:42.604Z,5.52
2023-02-11T10:38:11.951Z,5.56
2023-02-11T10:40:38.746Z,5.50
2023-02-11T10:43:10.617Z,5.55
2023-02-11T10:45:50.752Z,5.51
2023-02-11T10:48:49.663Z,5.54
2023-02-11T10:51:23.271Z,5.57
2023-02-11T10:54:00.866Z,5.58
2023-02-11T10:56:28.742Z,5.58
2023-02-11T10:59:01.694Z,5.56
2023-02-11T11:01:50.164Z,5.50
2023-02-11T11:04:45.462Z,5.52
2023-02-11T11:07:30.119Z,5.56
2023-02-11T11:09:59.795Z,5.56
2023-02-11T11:12:26.430Z,5.58
2023-02-11T11:15:16.628Z,5.55
2023-02-11T11:17:43.336Z,5.55
2023-02-11T11:20:35.482Z,5.61
2023-02-11T11:23:13.701Z,5.57
2023-02-11T11:25:44.107Z,5.59
2023-02-11T11:28:24.420Z,5.60
2023-02-11T11:30:54.130Z,5.59
2023-02-11T11:33:26.130Z,5.58
2023-02-11T11:36:11.515Z,5.55
2023-02-11T11:38:48.406Z,5.60
2023-02-11T11:41:24.171Z,5.59
2023-02-11T11:43:56.723Z,5.61
2023-02-11T11:46:41.752Z,5.64
2023-02-11T11:49:22.086Z,5.67
2023-02-11T11:52:10.288Z,5.63
2023-02-11T11:54:37.509Z,5.64
2023-02-11T11:57:14.745Z,5.71
2023-02-11T11:59:44.360Z,5.73
2023-02-11T12:02:42.145Z,5.79
2023-02-11T12:05:26.883Z,5.77
2023-02-11T12:08:33.372Z,5.82
2023-02-11T12:11:28.437Z,5.83
2023-02-11T12:14:19.021Z,5.82
2023-02-11T12:16:54.540Z,5.87
2023-02-11T12:19:45.566Z,5.90
2023-02-11T12:22:44.202Z,5.90
2023-02-11T12:25:23.129Z,5.92
2023-02-11T12:28:26.812Z,5.94
2023-02-11T12:31:23.106Z,5.97
2023-02-11T12:34:00.842Z,6.05
2023-02-11T12:36:30.450Z,6.09
2023-02-11T12:39:27.097Z,6.16
2023-02-11T12:42:35.953Z,6.15
2023-02-11T12:45:22.445Z,6.19
2023-02-11T12:48:05.624Z,6.19
2023-02-11T12:50:55.171Z,6.21
2023-02-11T12:53:53.891Z,6.16
2023-02-11T12:56:40.458Z,6.20
2023-02-11T12:59:15.344Z,6.20
2023-02-11T13:01:47.329Z,6.28
2023-02-11T13:04:23.922Z,6.28
2023-02-11T13:07:02.572Z,6.26
2023-02-11T13:10:13.346Z,6.33
2023-02-11T13:13:03.524Z,6.27
2023-02-11T13:15:31.717Z,6.38
2023-02-11T13:18:30.000Z,6.35
2023-02-11T13:21:17.945Z,6.33
2023-02-11T13:23:57.991Z,6.39
2023-02-11T13:26:45.722Z,6.43
2023-02-11T13:29:26.285Z,6.37
2023-02-11T13:31:54.979Z,6.36
2023-02-11T13:34:26.977Z,6.41
2023-02-11T13:37:02.838Z,6.41
2023-02-11T13:39:29.592Z,6.35
2023-02-11T13:42:06.356Z,6.30
2023-02-11T13:44:34.884Z,6.41
2023-02-11T13:47:05.059Z,6.40
2023-02-11T13:49:41.482Z,6.49
2023-02-11T13:52:32.388Z,6.43
2023-02-11T13:55:22.635Z,6.42
2023-02-11T13:58:12.131Z,6.39
2023-02-11T14:00:38.712Z,6.41
2023-02-11T14:03:32.618Z,6.41
2023-02-11T14:06:27.172Z,6.43
2023-02-11T14:09:09.179Z,6.35
2023-02-11T14:11:46.300Z,6.40
2023-02-11T14:14:31.877Z,6.41
2023-02-11T14:16:58.690Z,6.38
2023-02-11T14:19:43.884Z,6.38
2023-02-11T14:22:10.534Z,6.29
2023-02-11T14:24:37.103Z,6.30
2023-02-11T14:27:25.920Z,6.26
2023-02-11T14:30:10.523Z,6.27
2023-02-11T14:33:08.451Z,6.30
2023-02-11T14:35:40.976Z,6.33
2023-02-11T14:38:26.982Z,6.27
2023-02-11T14:41:18.594Z,6.26
2023-02-11T14:43:53.252Z,6.26
2023-02-11T14:46:22.400Z,6.30
2023-02-11T14:48:52.324Z,6.30
2023-02-11T14:51:27.677Z,6.31
2023-02-11T14:54:02.031Z,6.31
2023-02-11T14:56:31.327Z,6.36
2023-02-11T14:58:58.405Z,6.33
2023-02-11T15:01:41.005Z,6.28
2023-02-11T15:04:25.336Z,6.34
2023-02-11T15:06:55.377Z,6.33
2023-02-11T15:09:34.270Z,6.36
2023-02-11T15:12:01.330Z,6.35
2023-02-11T15:14:37.368Z,6.34
2023-02-11T15:17:07.749Z,6.37
2023-02-11T15:19:38.545Z,6.34
2023-02-11T15:22:27.061Z,6.29
2023-02-11T15:25:01.137Z,6.33
2023-02-11T15:27:27.819Z,6.31
2023-02-11T15:29:54.492Z,6.38
2023-02-11T15:32:34.846Z,6.32
2023-02-11T15:35:01.498Z,6.35
2023-02-11T15:37:30.021Z,6.32
2023-02-11T15:40:13.215Z,6.32
2023-02-11T15:42:52.122Z,6.34
2023-02-11T15:45:31.420Z,6.32
2023-02-11T15:48:24.744Z,6.31
2023-02-11T15:50:55.587Z,6.31
2023-02-11T15:53:33.404Z,6.29
2023-02-11T15:56:16.554Z,6.23
2023-02-11T15:58:45.982Z,6.33
2023-02-11T16:01:14.197Z,6.29
2023-02-11T16:03:44.073Z,6.28
2023-02-11T16:06:17.955Z,6.28
2023-02-11T16:09:01.416Z,6.33
2023-02-11T16:11:55.556Z,6.41
2023-02-11T16:14:29.618Z,6.37
2023-02-11T16:16:56.129Z,6.33
2023-02-11T16:19:34.053Z,6.24
2023-02-11T16:22:10.108Z,6.40
2023-02-11T16:24:38.922Z,6.41
2023-02-11T16:27:18.380Z,6.41
2023-02-11T16:29:55.113Z,6.46
2023-02-11T16:32:26.748Z,6.47
2023-02-11T16:34:55.360Z,6.47
2023-02-11T16:37:21.978Z,6.47
2023-02-11T16:39:55.101Z,6.39
2023-02-11T16:42:21.739Z,6.43
2023-02-11T16:44:48.347Z,6.51
2023-02-11T16:47:26.688Z,6.48
2023-02-11T16:49:54.302Z,6.46
2023-02-11T16:52:21.913Z,6.55
2023-02-11T16:54:48.863Z,6.60
2023-02-11T16:57:16.600Z,6.58
2023-02-11T16:59:46.698Z,6.65
2023-02-11T17:02:23.958Z,6.52
2023-02-11T17:04:52.871Z,6.51
2023-02-11T17:07:31.923Z,6.59
2023-02-11T17:09:59.300Z,6.66
2023-02-11T17:12:28.631Z,6.62
2023-02-11T17:14:55.382Z,6.58
2023-02-11T17:17:25.076Z,6.60
2023-02-11T17:19:52.133Z,6.64
2023-02-11T17:22:22.016Z,6.65
2023-02-11T17:24:48.928Z,6.71
2023-02-11T17:27:15.588Z,6.60
2023-02-11T17:29:42.242Z,6.61
2023-02-11T17:32:08.899Z,6.61
2023-02-11T17:34:35.763Z,6.68
2023-02-11T17:37:08.995Z,6.64
2023-02-11T17:39:37.014Z,6.67
2023-02-11T17:42:04.360Z,6.71
2023-02-11T17:44:30.992Z,6.68
2023-02-11T17:46:58.788Z,6.64
2023-02-11T17:49:25.593Z,6.62
2023-02-11T17:51:52.297Z,6.68
2023-02-11T17:54:22.708Z,6.67
2023-02-11T17:56:51.056Z,6.61
2023-02-11T17:59:17.918Z,6.59
2023-02-11T18:01:44.598Z,6.59
2023-02-11T18:04:15.392Z,6.59
2023-02-11T18:06:42.094Z,6.69
2023-02-11T18:09:12.210Z,6.57
2023-02-11T18:11:40.168Z,6.74
2023-02-11T18:14:08.546Z,6.76
2023-02-11T18:16:39.032Z,6.63
2023-02-11T18:19:07.839Z,6.64
2023-02-11T18:21:35.055Z,6.60
2023-02-11T18:24:06.481Z,6.72
2023-02-11T18:26:37.210Z,6.66
2023-02-11T18:29:06.320Z,6.75
2023-02-11T18:31:35.430Z,6.70
2023-02-11T18:34:05.630Z,6.70
2023-02-11T18:36:38.088Z,6.74
2023-02-11T18:39:05.987Z,6.73
2023-02-11T18:41:32.676Z,6.61
2023-02-11T18:44:02.817Z,6.65
2023-02-11T18:46:29.948Z,6.79
2023-02-11T18:48:56.676Z,6.70
2023-02-11T18:51:23.743Z,6.80
2023-02-11T18:53:50.571Z,6.81
2023-02-11T18:56:23.768Z,6.73
2023-02-11T18:58:51.493Z,6.81
2023-02-11T19:01:29.498Z,6.82
2023-02-11T19:03:58.107Z,6.74
2023-02-11T19:06:27.367Z,6.74
2023-02-11T19:08:59.196Z,6.66
2023-02-11T19:11:45.437Z,6.73
2023-02-11T19:14:14.237Z,6.66
2023-02-11T19:16:42.616Z,6.60
2023-02-11T19:19:09.669Z,6.64
2023-02-11T19:21:36.933Z,6.68
2023-02-11T19:24:07.988Z,6.69
2023-02-11T19:26:35.714Z,6.74
2023-02-11T19:29:02.772Z,6.68
2023-02-11T19:31:32.354Z,6.64
2023-02-11T19:34:00.375Z,6.70
2023-02-11T19:36:29.430Z,6.76
2023-02-11T19:38:56.145Z,6.78
2023-02-11T19:41:23.333Z,6.70
2023-02-11T19:43:53.788Z,6.68
2023-02-11T19:46:24.374Z,6.77
2023-02-11T19:48:51.279Z,6.73
2023-02-11T19:51:18.311Z,6.71
2023-02-11T19:53:47.853Z,6.63
2023-02-11T19:56:20.417Z,6.53
2023-02-11T19:58:47.368Z,6.71
2023-02-11T20:01:19.714Z,6.65
2023-02-11T20:03:50.249Z,6.64
2023-02-11T20:06:28.488Z,6.69
2023-02-11T20:09:02.714Z,6.67
2023-02-11T20:11:31.264Z,6.72
2023-02-11T20:13:58.590Z,6.69
2023-02-11T20:16:46.039Z,6.66
2023-02-11T20:19:20.584Z,6.66
2023-02-11T20:21:48.832Z,6.67
2023-02-11T20:24:19.090Z,6.79
2023-02-11T20:26:48.486Z,6.71
2023-02-11T20:29:17.469Z,6.74
2023-02-11T20:31:44.849Z,6.72
2023-02-11T20:34:14.448Z,6.62
2023-02-11T20:36:41.265Z,6.60
2023-02-11T20:39:08.985Z,6.57
2023-02-11T20:41:40.060Z,6.57
2023-02-11T20:44:08.711Z,6.74
2023-02-11T20:46:40.183Z,6.80
2023-02-11T20:49:09.097Z,6.70
2023-02-11T20:51:37.001Z,6.79
2023-02-11T20:54:04.113Z,6.82
2023-02-11T20:56:32.555Z,6.77
2023-02-11T20:59:01.629Z,6.79
2023-02-11T21:01:34.572Z,6.79
2023-02-11T21:04:06.760Z,6.82
2023-02-11T21:06:36.431Z,6.72
2023-02-11T21:09:05.515Z,6.81
2023-02-11T21:11:32.376Z,6.75
2023-02-11T21:13:59.605Z,6.87
2023-02-11T21:16:26.411Z,6.91
2023-02-11T21:18:55.459Z,6.87
2023-02-11T21:21:23.321Z,6.84
2023-02-11T21:23:50.331Z,6.86
2023-02-11T21:26:17.637Z,6.91
2023-02-11T21:28:45.101Z,6.87
2023-02-11T21:31:37.158Z,6.87
2023-02-11T21:34:10.627Z,6.89
2023-02-11T21:36:37.325Z,6.87
2023-02-11T21:39:04.357Z,6.84
2023-02-11T21:41:31.470Z,6.84
2023-02-11T21:43:58.274Z,6.75
2023-02-11T21:46:25.034Z,6.73
2023-02-11T21:48:54.046Z,6.68
2023-02-11T21:51:23.758Z,6.71
2023-02-11T21:54:01.411Z,6.73
2023-02-11T21:56:34.351Z,6.90
2023-02-11T21:59:03.713Z,6.88
2023-02-11T22:01:35.400Z,6.76
2023-02-11T22:04:02.158Z,6.76
2023-02-11T22:06:31.391Z,6.79
2023-02-11T22:08:59.424Z,6.70
2023-02-11T22:11:26.071Z,6.77
2023-02-11T22:13:56.534Z,6.70
2023-02-11T22:16:23.916Z,6.79
2023-02-11T22:18:51.666Z,6.74
2023-02-11T22:21:20.959Z,6.71
2023-02-11T22:23:48.803Z,6.81
2023-02-11T22:26:21.280Z,6.78
2023-02-11T22:28:48.856Z,6.81
2023-02-11T22:31:19.056Z,6.73
2023-02-11T22:33:45.798Z,6.62
2023-02-11T22:36:33.926Z,6.64
2023-02-11T22:39:06.563Z,6.59
2023-02-11T22:41:33.709Z,6.60
2023-02-11T22:44:00.632Z,6.55
2023-02-11T22:46:27.533Z,6.52
2023-02-11T22:48:57.144Z,6.63
2023-02-11T22:51:31.334Z,6.71
2023-02-11T22:54:00.606Z,6.58
2023-02-11T22:56:28.226Z,6.64
2023-02-11T22:58:57.071Z,6.59
2023-02-11T23:01:29.865Z,6.52
2023-02-11T23:03:56.636Z,6.63
2023-02-11T23:06:26.230Z,6.61
2023-02-11T23:08:53.181Z,6.50
2023-02-11T23:11:23.670Z,6.62
2023-02-11T23:13:52.175Z,6.69
2023-02-11T23:16:22.309Z,6.66
2023-02-11T23:18:49.873Z,6.73
2023-02-11T23:21:26.104Z,6.61
2023-02-11T23:24:05.328Z,6.67
2023-02-11T23:26:32.050Z,6.73
2023-02-11T23:29:00.035Z,6.63
2023-02-11T23:31:35.488Z,6.63
2023-02-11T23:34:07.596Z,6.57
2023-02-11T23:36:34.760Z,6.70
2023-02-11T23:39:01.836Z,6.71
2023-02-11T23:41:31.665Z,6.59
2023-02-11T23:43:58.460Z,6.54
2023-02-11T23:46:31.426Z,6.55
2023-02-11T23:48:58.058Z,6.49
2023-02-11T23:51:24.796Z,6.61
2023-02-11T23:53:56.183Z,6.75
2023-02-11T23:56:27.426Z,6.55
2023-02-11T23:58:57.317Z,6.53
